sensor_id;sensor_type;location;lat;lon;timestamp;P1;durP1;ratioP1;P2;durP2;ratioP2
78288;SDS011;67539;48.752;12.922;2023-05-16T00:02:04;8.77;;;7.97;;
78288;SDS011;67539;48.752;12.922;2023-05-16T00:04:32;8.60;;;7.80;;
78288;SDS011;67539;48.752;12.922;2023-05-16T00:07:01;8.80;;;7.63;;
78288;SDS011;67539;48.752;12.922;2023-05-16T00:09:30;8.90;;;8.10;;
78288;SDS011;67539;48.752;12.922;2023-05-16T00:11:59;8.07;;;7.37;;
78288;SDS011;67539;48.752;12.922;2023-05-16T00:14:27;9.93;;;7.47;;
78288;SDS011;67539;48.752;12.922;2023-05-16T00:16:55;7.93;;;7.23;;
78288;SDS011;67539;48.752;12.922;2023-05-16T00:19:24;8.17;;;7.47;;
78288;SDS011;67539;48.752;12.922;2023-05-16T00:21:53;9.17;;;8.20;;
78288;SDS011;67539;48.752;12.922;2023-05-16T00:24:22;8.03;;;7.23;;
78288;SDS011;67539;48.752;12.922;2023-05-16T00:26:51;7.90;;;7.20;;
78288;SDS011;67539;48.752;12.922;2023-05-16T00:29:20;9.07;;;8.17;;
78288;SDS011;67539;48.752;12.922;2023-05-16T00:31:49;9.00;;;7.90;;
78288;SDS011;67539;48.752;12.922;2023-05-16T00:34:18;9.03;;;8.10;;
78288;SDS011;67539;48.752;12.922;2023-05-16T00:36:51;8.20;;;7.40;;
78288;SDS011;67539;48.752;12.922;2023-05-16T00:39:19;8.50;;;7.70;;
78288;SDS011;67539;48.752;12.922;2023-05-16T00:41:47;7.90;;;7.10;;
78288;SDS011;67539;48.752;12.922;2023-05-16T00:44:17;8.40;;;7.70;;
78288;SDS011;67539;48.752;12.922;2023-05-16T00:46:45;9.33;;;8.33;;
78288;SDS011;67539;48.752;12.922;2023-05-16T00:49:14;8.83;;;8.03;;
78288;SDS011;67539;48.752;12.922;2023-05-16T00:51:42;8.67;;;7.77;;
78288;SDS011;67539;48.752;12.922;2023-05-16T00:54:11;8.50;;;7.60;;
78288;SDS011;67539;48.752;12.922;2023-05-16T00:56:39;9.27;;;7.63;;
78288;SDS011;67539;48.752;12.922;2023-05-16T00:59:08;7.97;;;7.10;;
78288;SDS011;67539;48.752;12.922;2023-05-16T01:01:39;8.83;;;8.03;;
78288;SDS011;67539;48.752;12.922;2023-05-16T01:04:08;9.73;;;7.63;;
78288;SDS011;67539;48.752;12.922;2023-05-16T01:06:36;10.67;;;7.60;;
78288;SDS011;67539;48.752;12.922;2023-05-16T01:09:05;8.80;;;7.37;;
78288;SDS011;67539;48.752;12.922;2023-05-16T01:11:35;9.30;;;8.13;;
78288;SDS011;67539;48.752;12.922;2023-05-16T01:14:11;13.30;;;10.70;;
78288;SDS011;67539;48.752;12.922;2023-05-16T01:16:48;8.03;;;7.23;;
78288;SDS011;67539;48.752;12.922;2023-05-16T01:19:25;8.90;;;8.00;;
78288;SDS011;67539;48.752;12.922;2023-05-16T01:22:02;9.30;;;8.40;;
78288;SDS011;67539;48.752;12.922;2023-05-16T01:24:42;9.50;;;8.40;;
78288;SDS011;67539;48.752;12.922;2023-05-16T01:27:21;7.93;;;7.13;;
78288;SDS011;67539;48.752;12.922;2023-05-16T01:29:54;9.33;;;7.97;;
78288;SDS011;67539;48.752;12.922;2023-05-16T01:32:22;9.13;;;8.20;;
78288;SDS011;67539;48.752;12.922;2023-05-16T01:34:51;9.07;;;8.20;;
78288;SDS011;67539;48.752;12.922;2023-05-16T01:37:23;10.70;;;9.07;;
78288;SDS011;67539;48.752;12.922;2023-05-16T01:39:56;9.07;;;8.13;;
78288;SDS011;67539;48.752;12.922;2023-05-16T01:42:36;11.27;;;8.63;;
78288;SDS011;67539;48.752;12.922;2023-05-16T01:45:11;10.43;;;8.57;;
78288;SDS011;67539;48.752;12.922;2023-05-16T01:47:46;9.27;;;8.37;;
78288;SDS011;67539;48.752;12.922;2023-05-16T01:50:19;10.43;;;8.70;;
78288;SDS011;67539;48.752;12.922;2023-05-16T01:52:54;9.80;;;8.63;;
78288;SDS011;67539;48.752;12.922;2023-05-16T01:55:28;10.13;;;8.10;;
78288;SDS011;67539;48.752;12.922;2023-05-16T01:58:04;9.23;;;8.30;;
78288;SDS011;67539;48.752;12.922;2023-05-16T02:00:34;10.93;;;9.20;;
78288;SDS011;67539;48.752;12.922;2023-05-16T02:03:03;9.47;;;8.37;;
78288;SDS011;67539;48.752;12.922;2023-05-16T02:05:32;9.80;;;8.80;;
78288;SDS011;67539;48.752;12.922;2023-05-16T02:08:01;10.40;;;9.30;;
78288;SDS011;67539;48.752;12.922;2023-05-16T02:10:30;9.30;;;8.30;;
78288;SDS011;67539;48.752;12.922;2023-05-16T02:12:58;12.40;;;9.70;;
78288;SDS011;67539;48.752;12.922;2023-05-16T02:15:28;11.47;;;10.03;;
78288;SDS011;67539;48.752;12.922;2023-05-16T02:17:57;15.50;;;10.30;;
78288;SDS011;67539;48.752;12.922;2023-05-16T02:20:26;10.00;;;9.00;;
78288;SDS011;67539;48.752;12.922;2023-05-16T02:22:54;12.20;;;9.60;;
78288;SDS011;67539;48.752;12.922;2023-05-16T02:25:23;9.43;;;8.53;;
78288;SDS011;67539;48.752;12.922;2023-05-16T02:27:52;13.17;;;10.67;;
78288;SDS011;67539;48.752;12.922;2023-05-16T02:30:20;12.73;;;10.40;;
78288;SDS011;67539;48.752;12.922;2023-05-16T02:32:49;11.47;;;9.10;;
78288;SDS011;67539;48.752;12.922;2023-05-16T02:35:19;11.90;;;10.10;;
78288;SDS011;67539;48.752;12.922;2023-05-16T02:37:47;16.60;;;10.73;;
78288;SDS011;67539;48.752;12.922;2023-05-16T02:40:16;15.73;;;11.60;;
78288;SDS011;67539;48.752;12.922;2023-05-16T02:42:44;17.20;;;12.23;;
78288;SDS011;67539;48.752;12.922;2023-05-16T02:45:14;19.70;;;14.50;;
78288;SDS011;67539;48.752;12.922;2023-05-16T02:47:42;21.77;;;14.23;;
78288;SDS011;67539;48.752;12.922;2023-05-16T02:50:12;18.23;;;13.30;;
78288;SDS011;67539;48.752;12.922;2023-05-16T02:52:40;21.93;;;14.33;;
78288;SDS011;67539;48.752;12.922;2023-05-16T02:55:09;21.70;;;14.47;;
78288;SDS011;67539;48.752;12.922;2023-05-16T02:57:41;20.37;;;14.50;;
78288;SDS011;67539;48.752;12.922;2023-05-16T03:00:11;22.43;;;14.33;;
78288;SDS011;67539;48.752;12.922;2023-05-16T03:02:43;19.40;;;14.90;;
78288;SDS011;67539;48.752;12.922;2023-05-16T03:05:14;20.87;;;14.50;;
78288;SDS011;67539;48.752;12.922;2023-05-16T03:07:42;19.37;;;13.43;;
78288;SDS011;67539;48.752;12.922;2023-05-16T03:10:10;19.97;;;15.17;;
78288;SDS011;67539;48.752;12.922;2023-05-16T03:12:39;19.10;;;14.47;;
78288;SDS011;67539;48.752;12.922;2023-05-16T03:15:07;20.50;;;14.40;;
78288;SDS011;67539;48.752;12.922;2023-05-16T03:17:37;18.33;;;13.90;;
78288;SDS011;67539;48.752;12.922;2023-05-16T03:20:05;20.93;;;14.80;;
78288;SDS011;67539;48.752;12.922;2023-05-16T03:22:37;18.73;;;13.57;;
78288;SDS011;67539;48.752;12.922;2023-05-16T03:25:09;21.70;;;15.23;;
78288;SDS011;67539;48.752;12.922;2023-05-16T03:27:39;24.23;;;15.80;;
78288;SDS011;67539;48.752;12.922;2023-05-16T03:30:08;18.80;;;14.23;;
78288;SDS011;67539;48.752;12.922;2023-05-16T03:32:36;21.87;;;14.73;;
78288;SDS011;67539;48.752;12.922;2023-05-16T03:35:05;20.47;;;14.63;;
78288;SDS011;67539;48.752;12.922;2023-05-16T03:37:33;20.47;;;14.67;;
78288;SDS011;67539;48.752;12.922;2023-05-16T03:40:04;21.73;;;14.93;;
78288;SDS011;67539;48.752;12.922;2023-05-16T03:42:34;23.40;;;15.03;;
78288;SDS011;67539;48.752;12.922;2023-05-16T03:45:03;24.27;;;16.93;;
78288;SDS011;67539;48.752;12.922;2023-05-16T03:47:32;21.07;;;15.90;;
78288;SDS011;67539;48.752;12.922;2023-05-16T03:50:01;22.30;;;15.13;;
78288;SDS011;67539;48.752;12.922;2023-05-16T03:52:30;19.90;;;14.73;;
78288;SDS011;67539;48.752;12.922;2023-05-16T03:54:58;21.80;;;15.00;;
78288;SDS011;67539;48.752;12.922;2023-05-16T03:57:29;19.47;;;14.63;;
78288;SDS011;67539;48.752;12.922;2023-05-16T03:59:58;20.40;;;14.67;;
78288;SDS011;67539;48.752;12.922;2023-05-16T04:02:36;19.97;;;15.47;;
78288;SDS011;67539;48.752;12.922;2023-05-16T04:05:07;21.07;;;14.60;;
78288;SDS011;67539;48.752;12.922;2023-05-16T04:07:36;17.33;;;13.97;;
78288;SDS011;67539;48.752;12.922;2023-05-16T04:10:05;21.00;;;14.93;;
78288;SDS011;67539;48.752;12.922;2023-05-16T04:12:35;19.73;;;14.80;;
78288;SDS011;67539;48.752;12.922;2023-05-16T04:15:04;20.40;;;14.87;;
78288;SDS011;67539;48.752;12.922;2023-05-16T04:17:34;18.90;;;14.30;;
78288;SDS011;67539;48.752;12.922;2023-05-16T04:20:03;20.50;;;14.33;;
78288;SDS011;67539;48.752;12.922;2023-05-16T04:22:32;18.80;;;13.50;;
78288;SDS011;67539;48.752;12.922;2023-05-16T04:25:01;18.90;;;14.30;;
78288;SDS011;67539;48.752;12.922;2023-05-16T04:27:30;17.73;;;13.30;;
78288;SDS011;67539;48.752;12.922;2023-05-16T04:30:00;18.90;;;13.73;;
78288;SDS011;67539;48.752;12.922;2023-05-16T04:32:29;19.47;;;14.93;;
78288;SDS011;67539;48.752;12.922;2023-05-16T04:35:00;19.60;;;14.53;;
78288;SDS011;67539;48.752;12.922;2023-05-16T04:37:29;17.80;;;14.00;;
78288;SDS011;67539;48.752;12.922;2023-05-16T04:39:58;20.00;;;14.20;;
78288;SDS011;67539;48.752;12.922;2023-05-16T04:42:26;20.40;;;15.23;;
78288;SDS011;67539;48.752;12.922;2023-05-16T04:44:55;19.43;;;14.23;;
78288;SDS011;67539;48.752;12.922;2023-05-16T04:47:25;15.90;;;13.00;;
78288;SDS011;67539;48.752;12.922;2023-05-16T04:49:53;20.10;;;14.73;;
78288;SDS011;67539;48.752;12.922;2023-05-16T04:52:22;19.10;;;13.67;;
78288;SDS011;67539;48.752;12.922;2023-05-16T04:54:50;20.37;;;14.57;;
78288;SDS011;67539;48.752;12.922;2023-05-16T04:57:19;18.53;;;14.20;;
78288;SDS011;67539;48.752;12.922;2023-05-16T04:59:47;18.73;;;13.77;;
78288;SDS011;67539;48.752;12.922;2023-05-16T05:02:15;18.73;;;13.90;;
78288;SDS011;67539;48.752;12.922;2023-05-16T05:04:45;23.63;;;14.97;;
78288;SDS011;67539;48.752;12.922;2023-05-16T05:07:13;19.00;;;14.50;;
78288;SDS011;67539;48.752;12.922;2023-05-16T05:09:41;18.33;;;14.27;;
78288;SDS011;67539;48.752;12.922;2023-05-16T05:12:10;17.90;;;14.07;;
78288;SDS011;67539;48.752;12.922;2023-05-16T05:14:38;21.70;;;15.70;;
78288;SDS011;67539;48.752;12.922;2023-05-16T05:17:06;21.47;;;16.03;;
78288;SDS011;67539;48.752;12.922;2023-05-16T05:19:34;22.90;;;15.87;;
78288;SDS011;67539;48.752;12.922;2023-05-16T05:22:05;20.37;;;15.83;;
78288;SDS011;67539;48.752;12.922;2023-05-16T05:24:33;21.23;;;15.90;;
78288;SDS011;67539;48.752;12.922;2023-05-16T05:27:02;20.10;;;15.23;;
78288;SDS011;67539;48.752;12.922;2023-05-16T05:29:30;19.60;;;15.10;;
78288;SDS011;67539;48.752;12.922;2023-05-16T05:31:59;22.53;;;15.67;;
78288;SDS011;67539;48.752;12.922;2023-05-16T05:34:27;21.67;;;16.50;;
78288;SDS011;67539;48.752;12.922;2023-05-16T05:36:56;20.17;;;15.70;;
78288;SDS011;67539;48.752;12.922;2023-05-16T05:39:26;19.47;;;14.20;;
78288;SDS011;67539;48.752;12.922;2023-05-16T05:41:55;19.87;;;15.47;;
78288;SDS011;67539;48.752;12.922;2023-05-16T05:44:24;19.87;;;15.13;;
78288;SDS011;67539;48.752;12.922;2023-05-16T05:46:52;19.87;;;15.23;;
78288;SDS011;67539;48.752;12.922;2023-05-16T05:49:20;19.30;;;14.20;;
78288;SDS011;67539;48.752;12.922;2023-05-16T05:51:49;22.23;;;15.97;;
78288;SDS011;67539;48.752;12.922;2023-05-16T05:54:17;20.77;;;15.50;;
78288;SDS011;67539;48.752;12.922;2023-05-16T05:56:47;20.50;;;14.40;;
78288;SDS011;67539;48.752;12.922;2023-05-16T05:59:16;21.23;;;16.67;;
78288;SDS011;67539;48.752;12.922;2023-05-16T06:01:44;20.00;;;15.30;;
78288;SDS011;67539;48.752;12.922;2023-05-16T06:04:13;19.60;;;14.73;;
78288;SDS011;67539;48.752;12.922;2023-05-16T06:06:41;20.60;;;15.33;;
78288;SDS011;67539;48.752;12.922;2023-05-16T06:09:09;20.03;;;16.60;;
78288;SDS011;67539;48.752;12.922;2023-05-16T06:11:39;19.30;;;15.50;;
78288;SDS011;67539;48.752;12.922;2023-05-16T06:14:08;18.53;;;14.83;;
78288;SDS011;67539;48.752;12.922;2023-05-16T06:16:37;18.23;;;16.20;;
78288;SDS011;67539;48.752;12.922;2023-05-16T06:19:06;16.90;;;14.23;;
78288;SDS011;67539;48.752;12.922;2023-05-16T06:21:34;20.00;;;15.27;;
78288;SDS011;67539;48.752;12.922;2023-05-16T06:24:03;23.53;;;16.70;;
78288;SDS011;67539;48.752;12.922;2023-05-16T06:26:32;19.30;;;15.87;;
78288;SDS011;67539;48.752;12.922;2023-05-16T06:29:00;22.23;;;16.73;;
78288;SDS011;67539;48.752;12.922;2023-05-16T06:31:30;21.30;;;15.70;;
78288;SDS011;67539;48.752;12.922;2023-05-16T06:33:58;23.77;;;17.33;;
78288;SDS011;67539;48.752;12.922;2023-05-16T06:36:26;23.37;;;17.07;;
78288;SDS011;67539;48.752;12.922;2023-05-16T06:38:55;20.43;;;15.53;;
78288;SDS011;67539;48.752;12.922;2023-05-16T06:41:23;20.03;;;15.90;;
78288;SDS011;67539;48.752;12.922;2023-05-16T06:43:52;22.60;;;16.80;;
78288;SDS011;67539;48.752;12.922;2023-05-16T06:46:20;18.53;;;15.43;;
78288;SDS011;67539;48.752;12.922;2023-05-16T06:48:50;19.77;;;16.40;;
78288;SDS011;67539;48.752;12.922;2023-05-16T06:51:18;19.03;;;15.70;;
78288;SDS011;67539;48.752;12.922;2023-05-16T06:53:46;19.40;;;15.83;;
78288;SDS011;67539;48.752;12.922;2023-05-16T06:56:15;23.27;;;16.53;;
78288;SDS011;67539;48.752;12.922;2023-05-16T06:58:43;20.13;;;16.77;;
78288;SDS011;67539;48.752;12.922;2023-05-16T07:01:11;22.73;;;17.30;;
78288;SDS011;67539;48.752;12.922;2023-05-16T07:03:40;19.67;;;16.00;;
78288;SDS011;67539;48.752;12.922;2023-05-16T07:06:10;22.07;;;17.03;;
78288;SDS011;67539;48.752;12.922;2023-05-16T07:08:38;19.60;;;15.47;;
78288;SDS011;67539;48.752;12.922;2023-05-16T07:11:06;21.60;;;17.00;;
78288;SDS011;67539;48.752;12.922;2023-05-16T07:13:37;20.73;;;16.80;;
78288;SDS011;67539;48.752;12.922;2023-05-16T07:16:05;23.27;;;18.27;;
78288;SDS011;67539;48.752;12.922;2023-05-16T07:18:34;19.07;;;16.00;;
78288;SDS011;67539;48.752;12.922;2023-05-16T07:21:03;23.93;;;17.60;;
78288;SDS011;67539;48.752;12.922;2023-05-16T07:23:32;20.37;;;16.77;;
78288;SDS011;67539;48.752;12.922;2023-05-16T07:26:01;17.30;;;14.80;;
78288;SDS011;67539;48.752;12.922;2023-05-16T07:28:30;21.90;;;17.30;;
78288;SDS011;67539;48.752;12.922;2023-05-16T07:30:58;21.50;;;16.93;;
78288;SDS011;67539;48.752;12.922;2023-05-16T07:33:27;19.80;;;16.07;;
78288;SDS011;67539;48.752;12.922;2023-05-16T07:35:55;21.90;;;17.80;;
78288;SDS011;67539;48.752;12.922;2023-05-16T07:38:43;18.70;;;15.67;;
78288;SDS011;67539;48.752;12.922;2023-05-16T07:41:12;20.30;;;17.03;;
78288;SDS011;67539;48.752;12.922;2023-05-16T07:43:40;19.87;;;16.87;;
78288;SDS011;67539;48.752;12.922;2023-05-16T07:46:10;19.80;;;16.63;;
78288;SDS011;67539;48.752;12.922;2023-05-16T07:48:39;19.10;;;15.03;;
78288;SDS011;67539;48.752;12.922;2023-05-16T07:51:08;19.07;;;15.20;;
78288;SDS011;67539;48.752;12.922;2023-05-16T07:53:37;17.43;;;15.30;;
78288;SDS011;67539;48.752;12.922;2023-05-16T07:56:07;19.00;;;15.77;;
78288;SDS011;67539;48.752;12.922;2023-05-16T07:58:35;17.60;;;15.23;;
78288;SDS011;67539;48.752;12.922;2023-05-16T08:01:04;20.80;;;16.80;;
78288;SDS011;67539;48.752;12.922;2023-05-16T08:03:33;20.37;;;15.60;;
78288;SDS011;67539;48.752;12.922;2023-05-16T08:06:02;22.33;;;15.73;;
78288;SDS011;67539;48.752;12.922;2023-05-16T08:08:31;17.33;;;15.10;;
78288;SDS011;67539;48.752;12.922;2023-05-16T08:11:00;18.00;;;16.10;;
78288;SDS011;67539;48.752;12.922;2023-05-16T08:13:29;17.77;;;15.83;;
78288;SDS011;67539;48.752;12.922;2023-05-16T08:15:58;18.93;;;16.40;;
78288;SDS011;67539;48.752;12.922;2023-05-16T08:18:26;17.77;;;15.97;;
78288;SDS011;67539;48.752;12.922;2023-05-16T08:20:55;17.10;;;15.30;;
78288;SDS011;67539;48.752;12.922;2023-05-16T08:23:23;19.27;;;16.50;;
78288;SDS011;67539;48.752;12.922;2023-05-16T08:25:52;17.70;;;15.77;;
78288;SDS011;67539;48.752;12.922;2023-05-16T08:28:21;18.30;;;16.40;;
78288;SDS011;67539;48.752;12.922;2023-05-16T08:30:51;18.30;;;15.73;;
78288;SDS011;67539;48.752;12.922;2023-05-16T08:33:20;17.50;;;15.00;;
78288;SDS011;67539;48.752;12.922;2023-05-16T08:35:49;17.10;;;15.30;;
78288;SDS011;67539;48.752;12.922;2023-05-16T08:38:19;17.90;;;15.80;;
78288;SDS011;67539;48.752;12.922;2023-05-16T08:40:47;20.43;;;16.33;;
78288;SDS011;67539;48.752;12.922;2023-05-16T08:43:16;18.20;;;15.60;;
78288;SDS011;67539;48.752;12.922;2023-05-16T08:45:44;15.77;;;14.17;;
78288;SDS011;67539;48.752;12.922;2023-05-16T08:48:14;15.10;;;13.43;;
78288;SDS011;67539;48.752;12.922;2023-05-16T08:50:45;17.23;;;15.30;;
78288;SDS011;67539;48.752;12.922;2023-05-16T08:53:14;15.70;;;14.10;;
78288;SDS011;67539;48.752;12.922;2023-05-16T08:55:53;17.90;;;15.90;;
78288;SDS011;67539;48.752;12.922;2023-05-16T08:58:22;16.93;;;15.10;;
78288;SDS011;67539;48.752;12.922;2023-05-16T09:00:52;16.60;;;14.87;;
78288;SDS011;67539;48.752;12.922;2023-05-16T09:03:23;14.30;;;12.90;;
78288;SDS011;67539;48.752;12.922;2023-05-16T09:05:54;16.90;;;14.70;;
78288;SDS011;67539;48.752;12.922;2023-05-16T09:08:23;17.10;;;15.30;;
78288;SDS011;67539;48.752;12.922;2023-05-16T09:10:51;16.80;;;15.07;;
78288;SDS011;67539;48.752;12.922;2023-05-16T09:13:20;15.97;;;14.30;;
78288;SDS011;67539;48.752;12.922;2023-05-16T09:18:36;15.00;;;13.53;;
78288;SDS011;67539;48.752;12.922;2023-05-16T09:21:05;15.03;;;13.53;;
78288;SDS011;67539;48.752;12.922;2023-05-16T09:23:34;18.30;;;16.43;;
78288;SDS011;67539;48.752;12.922;2023-05-16T09:26:03;15.90;;;14.20;;
78288;SDS011;67539;48.752;12.922;2023-05-16T09:28:33;19.73;;;15.90;;
78288;SDS011;67539;48.752;12.922;2023-05-16T09:31:17;16.03;;;14.37;;
78288;SDS011;67539;48.752;12.922;2023-05-16T09:33:48;18.50;;;16.53;;
78288;SDS011;67539;48.752;12.922;2023-05-16T09:36:17;25.90;;;18.10;;
78288;SDS011;67539;48.752;12.922;2023-05-16T09:38:46;15.77;;;14.17;;
78288;SDS011;67539;48.752;12.922;2023-05-16T09:41:14;16.77;;;15.07;;
78288;SDS011;67539;48.752;12.922;2023-05-16T09:43:43;15.30;;;13.30;;
78288;SDS011;67539;48.752;12.922;2023-05-16T09:46:11;19.57;;;14.63;;
78288;SDS011;67539;48.752;12.922;2023-05-16T09:48:43;16.70;;;14.90;;
78288;SDS011;67539;48.752;12.922;2023-05-16T09:51:14;33.40;;;24.97;;
78288;SDS011;67539;48.752;12.922;2023-05-16T09:53:42;17.17;;;15.47;;
78288;SDS011;67539;48.752;12.922;2023-05-16T09:56:12;20.53;;;18.33;;
78288;SDS011;67539;48.752;12.922;2023-05-16T09:58:42;19.07;;;17.07;;
78288;SDS011;67539;48.752;12.922;2023-05-16T10:01:12;18.37;;;16.47;;
78288;SDS011;67539;48.752;12.922;2023-05-16T10:03:41;16.93;;;15.13;;
78288;SDS011;67539;48.752;12.922;2023-05-16T10:06:11;20.50;;;17.97;;
78288;SDS011;67539;48.752;12.922;2023-05-16T10:08:42;38.77;;;28.67;;
78288;SDS011;67539;48.752;12.922;2023-05-16T10:11:10;16.90;;;15.20;;
78288;SDS011;67539;48.752;12.922;2023-05-16T10:13:40;14.10;;;12.80;;
78288;SDS011;67539;48.752;12.922;2023-05-16T10:16:10;14.87;;;13.30;;
78288;SDS011;67539;48.752;12.922;2023-05-16T10:18:39;17.33;;;13.10;;
78288;SDS011;67539;48.752;12.922;2023-05-16T10:21:09;14.10;;;12.80;;
78288;SDS011;67539;48.752;12.922;2023-05-16T10:23:42;13.90;;;12.50;;
78288;SDS011;67539;48.752;12.922;2023-05-16T10:26:15;14.73;;;13.30;;
78288;SDS011;67539;48.752;12.922;2023-05-16T10:28:44;16.40;;;14.40;;
78288;SDS011;67539;48.752;12.922;2023-05-16T10:31:12;14.43;;;13.10;;
78288;SDS011;67539;48.752;12.922;2023-05-16T10:33:42;13.07;;;11.77;;
78288;SDS011;67539;48.752;12.922;2023-05-16T10:36:11;14.30;;;13.00;;
78288;SDS011;67539;48.752;12.922;2023-05-16T10:38:42;14.00;;;12.70;;
78288;SDS011;67539;48.752;12.922;2023-05-16T10:41:13;15.23;;;13.83;;
78288;SDS011;67539;48.752;12.922;2023-05-16T10:43:43;15.03;;;13.60;;
78288;SDS011;67539;48.752;12.922;2023-05-16T10:46:12;14.30;;;13.00;;
78288;SDS011;67539;48.752;12.922;2023-05-16T10:48:41;13.90;;;12.63;;
78288;SDS011;67539;48.752;12.922;2023-05-16T10:54:05;13.77;;;12.47;;
78288;SDS011;67539;48.752;12.922;2023-05-16T10:56:36;17.13;;;15.40;;
78288;SDS011;67539;48.752;12.922;2023-05-16T10:59:06;15.70;;;13.40;;
78288;SDS011;67539;48.752;12.922;2023-05-16T11:01:51;15.20;;;13.70;;
78288;SDS011;67539;48.752;12.922;2023-05-16T11:04:20;15.47;;;13.97;;
78288;SDS011;67539;48.752;12.922;2023-05-16T11:06:51;15.23;;;13.63;;
78288;SDS011;67539;48.752;12.922;2023-05-16T11:09:23;15.97;;;14.47;;
78288;SDS011;67539;48.752;12.922;2023-05-16T11:11:59;15.07;;;13.57;;
78288;SDS011;67539;48.752;12.922;2023-05-16T11:14:34;16.40;;;14.80;;
78288;SDS011;67539;48.752;12.922;2023-05-16T11:17:09;16.23;;;14.73;;
78288;SDS011;67539;48.752;12.922;2023-05-16T11:19:39;15.17;;;13.73;;
78288;SDS011;67539;48.752;12.922;2023-05-16T11:22:21;15.63;;;14.03;;
78288;SDS011;67539;48.752;12.922;2023-05-16T11:24:51;15.37;;;13.77;;
78288;SDS011;67539;48.752;12.922;2023-05-16T11:27:22;15.10;;;13.67;;
78288;SDS011;67539;48.752;12.922;2023-05-16T11:29:52;16.60;;;14.90;;
78288;SDS011;67539;48.752;12.922;2023-05-16T11:32:25;16.83;;;15.13;;
78288;SDS011;67539;48.752;12.922;2023-05-16T11:34:53;16.27;;;14.73;;
78288;SDS011;67539;48.752;12.922;2023-05-16T11:37:23;17.43;;;15.77;;
78288;SDS011;67539;48.752;12.922;2023-05-16T11:39:52;16.83;;;14.77;;
78288;SDS011;67539;48.752;12.922;2023-05-16T11:42:20;17.03;;;15.27;;
78288;SDS011;67539;48.752;12.922;2023-05-16T11:44:48;15.83;;;14.17;;
78288;SDS011;67539;48.752;12.922;2023-05-16T11:47:17;15.10;;;13.60;;
78288;SDS011;67539;48.752;12.922;2023-05-16T11:49:46;61.77;;;32.83;;
78288;SDS011;67539;48.752;12.922;2023-05-16T11:52:15;23.30;;;17.93;;
78288;SDS011;67539;48.752;12.922;2023-05-16T11:54:45;15.40;;;13.90;;
78288;SDS011;67539;48.752;12.922;2023-05-16T11:57:13;14.73;;;13.30;;
78288;SDS011;67539;48.752;12.922;2023-05-16T11:59:42;14.80;;;13.27;;
78288;SDS011;67539;48.752;12.922;2023-05-16T12:02:10;12.27;;;11.17;;
78288;SDS011;67539;48.752;12.922;2023-05-16T12:04:39;12.43;;;11.33;;
78288;SDS011;67539;48.752;12.922;2023-05-16T12:07:07;13.30;;;12.10;;
78288;SDS011;67539;48.752;12.922;2023-05-16T12:09:35;12.60;;;11.50;;
78288;SDS011;67539;48.752;12.922;2023-05-16T12:12:06;12.63;;;11.43;;
78288;SDS011;67539;48.752;12.922;2023-05-16T12:14:34;15.07;;;13.47;;
78288;SDS011;67539;48.752;12.922;2023-05-16T12:17:03;16.30;;;14.70;;
78288;SDS011;67539;48.752;12.922;2023-05-16T12:19:32;16.00;;;14.40;;
78288;SDS011;67539;48.752;12.922;2023-05-16T12:22:00;15.73;;;14.23;;
78288;SDS011;67539;48.752;12.922;2023-05-16T12:24:29;15.63;;;14.13;;
78288;SDS011;67539;48.752;12.922;2023-05-16T12:26:58;16.60;;;14.90;;
78288;SDS011;67539;48.752;12.922;2023-05-16T12:29:27;15.20;;;13.80;;
78288;SDS011;67539;48.752;12.922;2023-05-16T12:31:58;16.03;;;14.53;;
78288;SDS011;67539;48.752;12.922;2023-05-16T12:34:27;14.20;;;12.83;;
78288;SDS011;67539;48.752;12.922;2023-05-16T12:36:56;16.40;;;14.80;;
78288;SDS011;67539;48.752;12.922;2023-05-16T12:39:27;14.03;;;12.60;;
78288;SDS011;67539;48.752;12.922;2023-05-16T12:42:04;13.83;;;12.43;;
78288;SDS011;67539;48.752;12.922;2023-05-16T12:44:35;11.77;;;10.70;;
78288;SDS011;67539;48.752;12.922;2023-05-16T12:47:03;11.17;;;10.27;;
78288;SDS011;67539;48.752;12.922;2023-05-16T12:49:43;9.20;;;8.40;;
78288;SDS011;67539;48.752;12.922;2023-05-16T12:52:16;6.50;;;5.73;;
78288;SDS011;67539;48.752;12.922;2023-05-16T12:54:46;6.10;;;5.60;;
78288;SDS011;67539;48.752;12.922;2023-05-16T12:57:14;6.17;;;5.57;;
78288;SDS011;67539;48.752;12.922;2023-05-16T12:59:44;8.50;;;6.33;;
78288;SDS011;67539;48.752;12.922;2023-05-16T13:02:12;8.73;;;5.87;;
78288;SDS011;67539;48.752;12.922;2023-05-16T13:04:40;5.77;;;5.13;;
78288;SDS011;67539;48.752;12.922;2023-05-16T13:07:08;7.10;;;6.40;;
78288;SDS011;67539;48.752;12.922;2023-05-16T13:09:37;5.60;;;5.20;;
78288;SDS011;67539;48.752;12.922;2023-05-16T13:12:07;8.77;;;6.07;;
78288;SDS011;67539;48.752;12.922;2023-05-16T13:14:35;6.27;;;5.70;;
78288;SDS011;67539;48.752;12.922;2023-05-16T13:17:05;7.37;;;5.97;;
78288;SDS011;67539;48.752;12.922;2023-05-16T13:19:33;6.43;;;5.83;;
78288;SDS011;67539;48.752;12.922;2023-05-16T13:22:01;11.20;;;10.03;;
78288;SDS011;67539;48.752;12.922;2023-05-16T13:24:30;6.93;;;6.43;;
78288;SDS011;67539;48.752;12.922;2023-05-16T13:26:58;9.90;;;9.00;;
78288;SDS011;67539;48.752;12.922;2023-05-16T13:29:26;12.00;;;9.60;;
78288;SDS011;67539;48.752;12.922;2023-05-16T13:31:56;9.90;;;8.90;;
78288;SDS011;67539;48.752;12.922;2023-05-16T13:34:25;11.97;;;10.70;;
78288;SDS011;67539;48.752;12.922;2023-05-16T13:36:53;13.40;;;12.00;;
78288;SDS011;67539;48.752;12.922;2023-05-16T13:39:22;15.20;;;11.67;;
78288;SDS011;67539;48.752;12.922;2023-05-16T13:41:50;9.07;;;8.27;;
78288;SDS011;67539;48.752;12.922;2023-05-16T13:44:18;8.23;;;7.00;;
78288;SDS011;67539;48.752;12.922;2023-05-16T13:46:47;7.63;;;6.77;;
78288;SDS011;67539;48.752;12.922;2023-05-16T13:49:16;21.60;;;19.33;;
78288;SDS011;67539;48.752;12.922;2023-05-16T13:51:45;8.87;;;8.07;;
78288;SDS011;67539;48.752;12.922;2023-05-16T13:54:13;19.47;;;17.47;;
78288;SDS011;67539;48.752;12.922;2023-05-16T13:56:42;17.53;;;16.13;;
78288;SDS011;67539;48.752;12.922;2023-05-16T13:59:10;15.67;;;14.30;;
78288;SDS011;67539;48.752;12.922;2023-05-16T14:01:49;12.77;;;11.47;;
78288;SDS011;67539;48.752;12.922;2023-05-16T14:04:18;12.23;;;10.87;;
78288;SDS011;67539;48.752;12.922;2023-05-16T14:06:47;12.23;;;10.87;;
78288;SDS011;67539;48.752;12.922;2023-05-16T14:09:15;9.27;;;8.40;;
78288;SDS011;67539;48.752;12.922;2023-05-16T14:11:44;9.07;;;8.27;;
78288;SDS011;67539;48.752;12.922;2023-05-16T14:14:12;12.60;;;10.73;;
78288;SDS011;67539;48.752;12.922;2023-05-16T14:16:40;20.90;;;9.23;;
78288;SDS011;67539;48.752;12.922;2023-05-16T14:19:10;8.43;;;7.63;;
78288;SDS011;67539;48.752;12.922;2023-05-16T14:21:43;7.77;;;7.03;;
78288;SDS011;67539;48.752;12.922;2023-05-16T14:24:13;7.63;;;6.93;;
78288;SDS011;67539;48.752;12.922;2023-05-16T14:26:41;15.60;;;14.20;;
78288;SDS011;67539;48.752;12.922;2023-05-16T14:29:09;9.23;;;8.33;;
78288;SDS011;67539;48.752;12.922;2023-05-16T14:31:38;8.90;;;8.00;;
78288;SDS011;67539;48.752;12.922;2023-05-16T14:34:06;21.70;;;18.50;;